RYR5BC LIBD-LICJ
Flight info
| Callsign | RYR5BC |
|---|---|
| Flight time | N/A |
| Altitude | 35000 |
| Route | TOPNO DCT BUMOK DCT KUTID DCT AMANO/N0334F190 M742 ROSAS |
| Aircraft | B738/M-SDE3FGILRWY/SB1 |
Departure
| Time | 2026-04-30 15:04 |
|---|---|
| Airport | Bari Karol Wojtyła International Airport (LIBD) |
Arrival
| Time | N/A |
|---|---|
| Airport | Falcone–Borsellino Airport (LICJ) |
| Time | Latitude | Longitude | Altitude | Speed | Heading |
|---|---|---|---|---|---|
| 2026-04-30 14:33 | 41.13570 | 16.76509 | 161 ft | 0 kts | 160° |
| 2026-04-30 14:56 | 41.13571 | 16.76509 | 158 ft | 1 kts | 160° |
| 2026-04-30 14:57 | 41.13593 | 16.76499 | 158 ft | 4 kts | 160° |
| 2026-04-30 14:57 | 41.13642 | 16.76489 | 158 ft | 4 kts | 224° |
| 2026-04-30 14:58 | 41.13646 | 16.76496 | 157 ft | 0 kts | 250° |
| 2026-04-30 15:00 | 41.13639 | 16.76470 | 157 ft | 4 kts | 250° |
| 2026-04-30 15:00 | 41.13599 | 16.76325 | 140 ft | 13 kts | 248° |
| 2026-04-30 15:01 | 41.13607 | 16.76057 | 157 ft | 18 kts | 320° |
| 2026-04-30 15:01 | 41.13622 | 16.75910 | 157 ft | 17 kts | 250° |
| 2026-04-30 15:01 | 41.13535 | 16.75604 | 157 ft | 19 kts | 249° |
| 2026-04-30 15:02 | 41.13488 | 16.75436 | 157 ft | 20 kts | 250° |
| 2026-04-30 15:02 | 41.13439 | 16.75266 | 157 ft | 19 kts | 249° |
| 2026-04-30 15:03 | 41.13385 | 16.74792 | 154 ft | 18 kts | 300° |
| 2026-04-30 15:03 | 41.13565 | 16.75045 | 147 ft | 61 kts | 70° |
| 2026-04-30 15:04 | 41.14152 | 16.77158 | 227 ft | 167 kts | 68° |
| 2026-04-30 15:04 | 41.15340 | 16.81999 | 2146 ft | 188 kts | 66° |
| 2026-04-30 15:05 | 41.16842 | 16.87002 | 3585 ft | 222 kts | 62° |
| 2026-04-30 15:06 | 41.18065 | 16.91029 | 4253 ft | 246 kts | 64° |
| 2026-04-30 15:06 | 41.18745 | 16.95600 | 5610 ft | 262 kts | 88° |
| 2026-04-30 15:07 | 41.18582 | 17.00507 | 7044 ft | 273 kts | 100° |
| 2026-04-30 15:07 | 41.16281 | 17.04601 | 8468 ft | 287 kts | 136° |
| 2026-04-30 15:08 | 41.13247 | 17.08232 | 9912 ft | 299 kts | 151° |
| 2026-04-30 15:08 | 41.07639 | 17.07318 | 12203 ft | 280 kts | 227° |
| 2026-04-30 15:09 | 41.04901 | 17.03609 | 13820 ft | 285 kts | 231° |
| 2026-04-30 15:09 | 41.02899 | 16.99188 | 15102 ft | 290 kts | 262° |
| 2026-04-30 15:10 | 41.02364 | 16.93523 | 15554 ft | 332 kts | 267° |
| 2026-04-30 15:11 | 41.01401 | 16.81128 | 18751 ft | 342 kts | 266° |
| 2026-04-30 15:11 | 41.00872 | 16.74846 | 20193 ft | 345 kts | 266° |
| 2026-04-30 15:12 | 41.00048 | 16.65295 | 22161 ft | 352 kts | 266° |
| 2026-04-30 15:13 | 40.99482 | 16.58812 | 23470 ft | 356 kts | 266° |
| 2026-04-30 15:14 | 40.98311 | 16.45556 | 25425 ft | 368 kts | 266° |
| 2026-04-30 15:14 | 40.97403 | 16.35391 | 26858 ft | 375 kts | 266° |
| 2026-04-30 15:16 | 40.95831 | 16.18022 | 29113 ft | 385 kts | 266° |
| 2026-04-30 15:17 | 40.94550 | 16.04164 | 31325 ft | 376 kts | 266° |
| 2026-04-30 15:18 | 40.92870 | 15.87125 | 33564 ft | 371 kts | 267° |
| 2026-04-30 15:19 | 40.91789 | 15.77025 | 34636 ft | 371 kts | 266° |